sensor_id;sensor_type;location;lat;lon;timestamp;temperature;humidity
1626;DHT22;806;48.770;9.156;2022-07-29T00:00:51;20.90;29.00
1626;DHT22;806;48.770;9.156;2022-07-29T00:03:18;21.00;31.00
1626;DHT22;806;48.770;9.156;2022-07-29T00:05:46;21.00;24.70
1626;DHT22;806;48.770;9.156;2022-07-29T00:08:13;21.10;31.90
1626;DHT22;806;48.770;9.156;2022-07-29T00:10:41;20.90;40.70
1626;DHT22;806;48.770;9.156;2022-07-29T00:13:08;20.80;54.50
1626;DHT22;806;48.770;9.156;2022-07-29T00:15:35;20.70;86.20
1626;DHT22;806;48.770;9.156;2022-07-29T00:18:02;20.60;74.10
1626;DHT22;806;48.770;9.156;2022-07-29T00:20:30;20.60;88.70
1626;DHT22;806;48.770;9.156;2022-07-29T00:22:58;20.60;92.70
1626;DHT22;806;48.770;9.156;2022-07-29T00:25:25;20.60;93.70
1626;DHT22;806;48.770;9.156;2022-07-29T00:27:52;20.50;95.60
1626;DHT22;806;48.770;9.156;2022-07-29T00:30:19;20.50;96.50
1626;DHT22;806;48.770;9.156;2022-07-29T00:32:46;20.40;99.90
1626;DHT22;806;48.770;9.156;2022-07-29T00:35:13;20.40;99.90
1626;DHT22;806;48.770;9.156;2022-07-29T00:37:59;20.50;99.90
1626;DHT22;806;48.770;9.156;2022-07-29T00:40:26;20.50;99.10
1626;DHT22;806;48.770;9.156;2022-07-29T00:42:53;20.60;99.90
1626;DHT22;806;48.770;9.156;2022-07-29T00:45:19;20.70;89.50
1626;DHT22;806;48.770;9.156;2022-07-29T00:47:47;20.70;84.00
1626;DHT22;806;48.770;9.156;2022-07-29T00:50:14;20.80;75.70
1626;DHT22;806;48.770;9.156;2022-07-29T00:52:42;20.70;73.00
1626;DHT22;806;48.770;9.156;2022-07-29T00:55:12;20.60;73.30
1626;DHT22;806;48.770;9.156;2022-07-29T00:57:40;20.50;92.50
1626;DHT22;806;48.770;9.156;2022-07-29T01:00:10;20.50;99.90
1626;DHT22;806;48.770;9.156;2022-07-29T01:02:37;20.60;92.20
1626;DHT22;806;48.770;9.156;2022-07-29T01:05:05;20.70;80.70
1626;DHT22;806;48.770;9.156;2022-07-29T01:07:34;20.80;83.50
1626;DHT22;806;48.770;9.156;2022-07-29T01:10:02;20.70;78.20
1626;DHT22;806;48.770;9.156;2022-07-29T01:12:31;20.70;57.50
1626;DHT22;806;48.770;9.156;2022-07-29T01:15:00;20.60;78.40
1626;DHT22;806;48.770;9.156;2022-07-29T01:17:32;20.50;78.90
1626;DHT22;806;48.770;9.156;2022-07-29T01:20:08;20.50;77.50
1626;DHT22;806;48.770;9.156;2022-07-29T01:23:05;20.50;93.20
1626;DHT22;806;48.770;9.156;2022-07-29T01:26:00;20.50;84.20
1626;DHT22;806;48.770;9.156;2022-07-29T01:28:45;20.50;86.50
1626;DHT22;806;48.770;9.156;2022-07-29T01:31:16;20.50;93.70
1626;DHT22;806;48.770;9.156;2022-07-29T01:33:50;20.50;91.70
1626;DHT22;806;48.770;9.156;2022-07-29T01:36:23;20.40;84.90
1626;DHT22;806;48.770;9.156;2022-07-29T01:38:57;20.50;70.00
1626;DHT22;806;48.770;9.156;2022-07-29T01:41:27;20.40;73.30
1626;DHT22;806;48.770;9.156;2022-07-29T01:44:02;20.40;71.20
1626;DHT22;806;48.770;9.156;2022-07-29T01:46:33;20.30;70.10
1626;DHT22;806;48.770;9.156;2022-07-29T01:49:11;20.20;88.40
1626;DHT22;806;48.770;9.156;2022-07-29T01:51:44;20.20;88.80
1626;DHT22;806;48.770;9.156;2022-07-29T01:54:18;20.20;85.80
1626;DHT22;806;48.770;9.156;2022-07-29T01:56:49;20.30;88.00
1626;DHT22;806;48.770;9.156;2022-07-29T01:59:20;20.20;85.20
1626;DHT22;806;48.770;9.156;2022-07-29T02:01:50;20.20;84.30
1626;DHT22;806;48.770;9.156;2022-07-29T02:04:19;20.20;91.70
1626;DHT22;806;48.770;9.156;2022-07-29T02:06:48;20.20;74.00
1626;DHT22;806;48.770;9.156;2022-07-29T02:09:16;20.30;70.70
1626;DHT22;806;48.770;9.156;2022-07-29T02:11:48;20.30;66.30
1626;DHT22;806;48.770;9.156;2022-07-29T02:14:19;20.30;63.20
1626;DHT22;806;48.770;9.156;2022-07-29T02:16:48;20.30;58.40
1626;DHT22;806;48.770;9.156;2022-07-29T02:19:17;20.20;66.30
1626;DHT22;806;48.770;9.156;2022-07-29T02:21:46;20.10;66.60
1626;DHT22;806;48.770;9.156;2022-07-29T02:24:14;20.10;82.50
1626;DHT22;806;48.770;9.156;2022-07-29T02:26:43;20.20;57.80
1626;DHT22;806;48.770;9.156;2022-07-29T02:29:12;20.20;50.70
1626;DHT22;806;48.770;9.156;2022-07-29T02:31:42;20.20;57.80
1626;DHT22;806;48.770;9.156;2022-07-29T02:34:10;20.20;59.40
1626;DHT22;806;48.770;9.156;2022-07-29T02:36:38;20.10;55.80
1626;DHT22;806;48.770;9.156;2022-07-29T02:39:08;20.00;56.90
1626;DHT22;806;48.770;9.156;2022-07-29T02:41:41;20.10;62.30
1626;DHT22;806;48.770;9.156;2022-07-29T02:44:11;20.00;44.90
1626;DHT22;806;48.770;9.156;2022-07-29T02:46:47;20.00;50.70
1626;DHT22;806;48.770;9.156;2022-07-29T02:49:29;19.90;57.60
1626;DHT22;806;48.770;9.156;2022-07-29T02:52:01;20.00;51.20
1626;DHT22;806;48.770;9.156;2022-07-29T02:54:33;20.00;48.90
1626;DHT22;806;48.770;9.156;2022-07-29T02:57:08;20.00;74.30
1626;DHT22;806;48.770;9.156;2022-07-29T02:59:37;19.90;63.10
1626;DHT22;806;48.770;9.156;2022-07-29T03:02:09;20.00;65.20
1626;DHT22;806;48.770;9.156;2022-07-29T03:04:40;20.20;40.90
1626;DHT22;806;48.770;9.156;2022-07-29T03:07:09;20.20;26.40
1626;DHT22;806;48.770;9.156;2022-07-29T03:09:37;20.20;32.30
1626;DHT22;806;48.770;9.156;2022-07-29T03:12:05;20.10;35.80
1626;DHT22;806;48.770;9.156;2022-07-29T03:14:33;20.00;44.90
1626;DHT22;806;48.770;9.156;2022-07-29T03:17:03;19.90;52.00
1626;DHT22;806;48.770;9.156;2022-07-29T03:19:32;19.90;57.50
1626;DHT22;806;48.770;9.156;2022-07-29T03:21:59;20.00;56.20
1626;DHT22;806;48.770;9.156;2022-07-29T03:24:29;20.10;46.70
1626;DHT22;806;48.770;9.156;2022-07-29T03:26:56;20.10;34.40
1626;DHT22;806;48.770;9.156;2022-07-29T03:29:24;20.10;39.00
1626;DHT22;806;48.770;9.156;2022-07-29T03:31:53;20.10;38.40
1626;DHT22;806;48.770;9.156;2022-07-29T03:34:23;20.10;42.00
1626;DHT22;806;48.770;9.156;2022-07-29T03:36:51;20.00;42.90
1626;DHT22;806;48.770;9.156;2022-07-29T03:39:23;19.90;58.90
1626;DHT22;806;48.770;9.156;2022-07-29T03:41:55;19.80;81.90
1626;DHT22;806;48.770;9.156;2022-07-29T03:44:23;19.70;93.40
1626;DHT22;806;48.770;9.156;2022-07-29T03:46:51;19.60;96.70
1626;DHT22;806;48.770;9.156;2022-07-29T03:49:22;19.60;95.30
1626;DHT22;806;48.770;9.156;2022-07-29T03:51:51;19.60;97.90
1626;DHT22;806;48.770;9.156;2022-07-29T03:54:18;19.60;98.40
1626;DHT22;806;48.770;9.156;2022-07-29T03:56:46;19.60;99.80
1626;DHT22;806;48.770;9.156;2022-07-29T03:59:17;19.70;93.70
1626;DHT22;806;48.770;9.156;2022-07-29T04:01:45;19.70;93.10
1626;DHT22;806;48.770;9.156;2022-07-29T04:04:13;19.60;97.80
1626;DHT22;806;48.770;9.156;2022-07-29T04:06:40;19.60;99.90
1626;DHT22;806;48.770;9.156;2022-07-29T04:09:09;19.70;97.90
1626;DHT22;806;48.770;9.156;2022-07-29T04:11:37;19.70;92.30
1626;DHT22;806;48.770;9.156;2022-07-29T04:14:04;19.80;91.00
1626;DHT22;806;48.770;9.156;2022-07-29T04:16:32;19.80;75.10
1626;DHT22;806;48.770;9.156;2022-07-29T04:18:59;19.80;75.60
1626;DHT22;806;48.770;9.156;2022-07-29T04:21:26;19.70;81.30
1626;DHT22;806;48.770;9.156;2022-07-29T04:23:53;19.70;84.20
1626;DHT22;806;48.770;9.156;2022-07-29T04:26:23;19.70;73.90
1626;DHT22;806;48.770;9.156;2022-07-29T04:28:49;19.80;73.50
1626;DHT22;806;48.770;9.156;2022-07-29T04:31:16;19.80;65.10
1626;DHT22;806;48.770;9.156;2022-07-29T04:33:43;19.90;54.70
1626;DHT22;806;48.770;9.156;2022-07-29T04:36:10;19.90;47.10
1626;DHT22;806;48.770;9.156;2022-07-29T04:38:38;20.00;48.10
1626;DHT22;806;48.770;9.156;2022-07-29T04:41:05;20.00;37.70
1626;DHT22;806;48.770;9.156;2022-07-29T04:43:35;20.00;26.40
1626;DHT22;806;48.770;9.156;2022-07-29T04:46:02;20.00;20.30
1626;DHT22;806;48.770;9.156;2022-07-29T04:48:29;20.00;23.60
1626;DHT22;806;48.770;9.156;2022-07-29T04:50:56;19.90;21.90
1626;DHT22;806;48.770;9.156;2022-07-29T04:53:23;19.90;25.40
1626;DHT22;806;48.770;9.156;2022-07-29T04:55:50;19.80;22.00
1626;DHT22;806;48.770;9.156;2022-07-29T04:58:20;19.80;27.00
1626;DHT22;806;48.770;9.156;2022-07-29T05:00:50;19.80;21.40
1626;DHT22;806;48.770;9.156;2022-07-29T05:03:17;19.80;20.50
1626;DHT22;806;48.770;9.156;2022-07-29T05:05:44;19.80;17.90
1626;DHT22;806;48.770;9.156;2022-07-29T05:08:11;19.80;28.30
1626;DHT22;806;48.770;9.156;2022-07-29T05:10:37;19.80;22.40
1626;DHT22;806;48.770;9.156;2022-07-29T05:13:05;19.80;20.40
1626;DHT22;806;48.770;9.156;2022-07-29T05:15:32;19.80;21.30
1626;DHT22;806;48.770;9.156;2022-07-29T05:18:01;20.00;6.40
1626;DHT22;806;48.770;9.156;2022-07-29T05:20:28;20.10;1.40
1626;DHT22;806;48.770;9.156;2022-07-29T05:22:56;20.10;1.00
1626;DHT22;806;48.770;9.156;2022-07-29T05:25:24;20.10;1.00
1626;DHT22;806;48.770;9.156;2022-07-29T05:27:51;20.20;1.00
1626;DHT22;806;48.770;9.156;2022-07-29T05:30:18;20.20;1.00
1626;DHT22;806;48.770;9.156;2022-07-29T05:32:45;20.20;1.00
1626;DHT22;806;48.770;9.156;2022-07-29T05:35:14;20.30;1.00
1626;DHT22;806;48.770;9.156;2022-07-29T05:37:42;20.30;1.00
1626;DHT22;806;48.770;9.156;2022-07-29T05:40:09;20.40;1.00
1626;DHT22;806;48.770;9.156;2022-07-29T05:42:37;20.50;1.00
1626;DHT22;806;48.770;9.156;2022-07-29T05:45:06;20.70;1.00
1626;DHT22;806;48.770;9.156;2022-07-29T05:47:34;20.80;1.00
1626;DHT22;806;48.770;9.156;2022-07-29T05:50:01;20.90;1.00
1626;DHT22;806;48.770;9.156;2022-07-29T05:52:29;20.90;1.00
1626;DHT22;806;48.770;9.156;2022-07-29T05:54:56;21.00;1.00
1626;DHT22;806;48.770;9.156;2022-07-29T05:57:23;21.10;1.00
1626;DHT22;806;48.770;9.156;2022-07-29T05:59:51;21.30;1.00
1626;DHT22;806;48.770;9.156;2022-07-29T06:02:20;21.30;1.00
1626;DHT22;806;48.770;9.156;2022-07-29T06:04:47;21.40;1.00
1626;DHT22;806;48.770;9.156;2022-07-29T06:07:14;21.50;1.00
1626;DHT22;806;48.770;9.156;2022-07-29T06:09:43;21.60;1.00
1626;DHT22;806;48.770;9.156;2022-07-29T06:12:10;21.60;1.00
1626;DHT22;806;48.770;9.156;2022-07-29T06:14:37;21.70;1.00
1626;DHT22;806;48.770;9.156;2022-07-29T06:17:04;21.70;1.00
1626;DHT22;806;48.770;9.156;2022-07-29T06:19:34;21.80;1.00
1626;DHT22;806;48.770;9.156;2022-07-29T06:22:01;21.80;1.00
1626;DHT22;806;48.770;9.156;2022-07-29T06:24:28;21.90;1.00
1626;DHT22;806;48.770;9.156;2022-07-29T06:26:57;22.10;1.00
1626;DHT22;806;48.770;9.156;2022-07-29T06:29:24;22.20;1.00
1626;DHT22;806;48.770;9.156;2022-07-29T06:31:51;22.40;99.90
1626;DHT22;806;48.770;9.156;2022-07-29T06:34:18;22.50;99.90
1626;DHT22;806;48.770;9.156;2022-07-29T06:36:46;22.50;99.90
1626;DHT22;806;48.770;9.156;2022-07-29T06:39:12;22.70;99.90
1626;DHT22;806;48.770;9.156;2022-07-29T06:41:39;22.80;1.00
1626;DHT22;806;48.770;9.156;2022-07-29T06:44:08;22.90;1.00
1626;DHT22;806;48.770;9.156;2022-07-29T06:46:35;22.90;1.00
1626;DHT22;806;48.770;9.156;2022-07-29T06:49:02;23.00;1.00
1626;DHT22;806;48.770;9.156;2022-07-29T06:51:29;23.10;1.00
1626;DHT22;806;48.770;9.156;2022-07-29T06:53:56;23.10;99.90
1626;DHT22;806;48.770;9.156;2022-07-29T06:56:24;23.10;99.90
1626;DHT22;806;48.770;9.156;2022-07-29T06:58:51;23.20;99.90
1626;DHT22;806;48.770;9.156;2022-07-29T07:01:20;23.20;1.00
1626;DHT22;806;48.770;9.156;2022-07-29T07:03:47;23.40;1.00
1626;DHT22;806;48.770;9.156;2022-07-29T07:06:14;23.50;99.90
1626;DHT22;806;48.770;9.156;2022-07-29T07:08:41;23.50;1.00
1626;DHT22;806;48.770;9.156;2022-07-29T07:11:08;23.60;1.00
1626;DHT22;806;48.770;9.156;2022-07-29T07:13:35;23.80;1.00
1626;DHT22;806;48.770;9.156;2022-07-29T07:16:03;23.80;10.70
1626;DHT22;806;48.770;9.156;2022-07-29T07:18:31;23.90;1.00
1626;DHT22;806;48.770;9.156;2022-07-29T07:20:58;23.90;1.00
1626;DHT22;806;48.770;9.156;2022-07-29T07:23:25;24.00;1.00
1626;DHT22;806;48.770;9.156;2022-07-29T07:25:52;24.10;99.90
1626;DHT22;806;48.770;9.156;2022-07-29T07:28:20;24.20;8.30
1626;DHT22;806;48.770;9.156;2022-07-29T07:30:50;24.30;1.00
1626;DHT22;806;48.770;9.156;2022-07-29T07:33:17;24.40;1.00
1626;DHT22;806;48.770;9.156;2022-07-29T07:35:45;24.30;1.00
1626;DHT22;806;48.770;9.156;2022-07-29T07:38:12;24.30;1.00
1626;DHT22;806;48.770;9.156;2022-07-29T07:40:40;24.30;1.00
1626;DHT22;806;48.770;9.156;2022-07-29T07:43:07;24.40;99.90
1626;DHT22;806;48.770;9.156;2022-07-29T07:45:34;24.50;99.90
1626;DHT22;806;48.770;9.156;2022-07-29T07:48:02;24.60;99.90
1626;DHT22;806;48.770;9.156;2022-07-29T07:50:29;24.70;77.10
1626;DHT22;806;48.770;9.156;2022-07-29T07:52:58;24.80;60.00
1626;DHT22;806;48.770;9.156;2022-07-29T07:55:27;24.80;18.30
1626;DHT22;806;48.770;9.156;2022-07-29T07:57:54;24.90;1.00
1626;DHT22;806;48.770;9.156;2022-07-29T08:00:22;25.00;1.00
1626;DHT22;806;48.770;9.156;2022-07-29T08:02:50;25.00;1.00
1626;DHT22;806;48.770;9.156;2022-07-29T08:05:17;25.00;99.90
1626;DHT22;806;48.770;9.156;2022-07-29T08:07:45;25.10;99.90
1626;DHT22;806;48.770;9.156;2022-07-29T08:10:13;25.20;99.90
1626;DHT22;806;48.770;9.156;2022-07-29T08:12:40;25.30;99.90
1626;DHT22;806;48.770;9.156;2022-07-29T08:15:08;25.50;1.00
1626;DHT22;806;48.770;9.156;2022-07-29T08:17:35;25.70;1.00
1626;DHT22;806;48.770;9.156;2022-07-29T08:20:03;25.90;1.00
1626;DHT22;806;48.770;9.156;2022-07-29T08:22:31;25.90;1.00
1626;DHT22;806;48.770;9.156;2022-07-29T08:24:58;26.00;1.00
1626;DHT22;806;48.770;9.156;2022-07-29T08:27:26;26.00;1.00
1626;DHT22;806;48.770;9.156;2022-07-29T08:29:56;26.00;1.00
1626;DHT22;806;48.770;9.156;2022-07-29T08:32:23;25.70;1.00
1626;DHT22;806;48.770;9.156;2022-07-29T08:34:50;25.80;1.00
1626;DHT22;806;48.770;9.156;2022-07-29T08:37:17;25.90;1.00
1626;DHT22;806;48.770;9.156;2022-07-29T08:39:44;26.00;1.00
1626;DHT22;806;48.770;9.156;2022-07-29T08:42:11;25.90;1.00
1626;DHT22;806;48.770;9.156;2022-07-29T08:44:40;25.90;1.00
1626;DHT22;806;48.770;9.156;2022-07-29T08:47:09;25.80;1.00
1626;DHT22;806;48.770;9.156;2022-07-29T08:49:37;25.80;1.00
1626;DHT22;806;48.770;9.156;2022-07-29T08:52:04;25.90;1.00
1626;DHT22;806;48.770;9.156;2022-07-29T08:54:32;26.00;1.00
1626;DHT22;806;48.770;9.156;2022-07-29T08:57:00;25.90;1.00
1626;DHT22;806;48.770;9.156;2022-07-29T08:59:29;25.80;1.00
1626;DHT22;806;48.770;9.156;2022-07-29T09:01:58;25.80;1.00
1626;DHT22;806;48.770;9.156;2022-07-29T09:04:29;25.80;1.00
1626;DHT22;806;48.770;9.156;2022-07-29T09:06:59;25.90;1.00
1626;DHT22;806;48.770;9.156;2022-07-29T09:09:27;26.10;1.00
1626;DHT22;806;48.770;9.156;2022-07-29T09:11:54;26.20;1.00
1626;DHT22;806;48.770;9.156;2022-07-29T09:14:21;26.30;1.00
1626;DHT22;806;48.770;9.156;2022-07-29T09:16:50;26.40;1.00
1626;DHT22;806;48.770;9.156;2022-07-29T09:19:27;26.50;1.00
1626;DHT22;806;48.770;9.156;2022-07-29T09:21:55;26.70;1.00
1626;DHT22;806;48.770;9.156;2022-07-29T09:24:42;26.90;1.00
1626;DHT22;806;48.770;9.156;2022-07-29T09:27:18;27.10;1.00
1626;DHT22;806;48.770;9.156;2022-07-29T09:29:45;27.20;1.00
1626;DHT22;806;48.770;9.156;2022-07-29T09:32:12;27.30;1.00
1626;DHT22;806;48.770;9.156;2022-07-29T09:34:41;27.50;1.00
1626;DHT22;806;48.770;9.156;2022-07-29T09:37:08;27.60;1.00
1626;DHT22;806;48.770;9.156;2022-07-29T09:39:39;27.80;1.00
1626;DHT22;806;48.770;9.156;2022-07-29T09:42:11;27.80;1.00
1626;DHT22;806;48.770;9.156;2022-07-29T09:44:44;27.90;1.00
1626;DHT22;806;48.770;9.156;2022-07-29T09:47:11;27.80;1.00
1626;DHT22;806;48.770;9.156;2022-07-29T09:49:53;27.70;1.00
1626;DHT22;806;48.770;9.156;2022-07-29T09:52:23;27.60;1.00
1626;DHT22;806;48.770;9.156;2022-07-29T09:54:50;27.70;1.00
1626;DHT22;806;48.770;9.156;2022-07-29T09:57:24;27.70;1.00
1626;DHT22;806;48.770;9.156;2022-07-29T09:59:59;27.80;1.00
1626;DHT22;806;48.770;9.156;2022-07-29T10:02:29;27.50;1.00
1626;DHT22;806;48.770;9.156;2022-07-29T10:04:58;27.40;1.00
1626;DHT22;806;48.770;9.156;2022-07-29T10:07:25;27.50;1.00
1626;DHT22;806;48.770;9.156;2022-07-29T10:09:54;27.40;1.00
1626;DHT22;806;48.770;9.156;2022-07-29T10:12:22;27.50;1.00
1626;DHT22;806;48.770;9.156;2022-07-29T10:14:50;27.60;1.00
1626;DHT22;806;48.770;9.156;2022-07-29T10:17:17;27.60;1.00
1626;DHT22;806;48.770;9.156;2022-07-29T10:19:45;27.80;1.00
1626;DHT22;806;48.770;9.156;2022-07-29T10:22:14;28.10;1.00
1626;DHT22;806;48.770;9.156;2022-07-29T10:24:41;28.10;1.00
1626;DHT22;806;48.770;9.156;2022-07-29T10:27:09;27.90;1.00
1626;DHT22;806;48.770;9.156;2022-07-29T10:29:36;27.80;1.00
1626;DHT22;806;48.770;9.156;2022-07-29T10:32:15;27.60;1.00
1626;DHT22;806;48.770;9.156;2022-07-29T10:35:01;27.50;1.00
1626;DHT22;806;48.770;9.156;2022-07-29T10:37:44;27.30;1.00
1626;DHT22;806;48.770;9.156;2022-07-29T10:40:21;27.00;1.00
1626;DHT22;806;48.770;9.156;2022-07-29T10:43:16;26.90;1.00
1626;DHT22;806;48.770;9.156;2022-07-29T10:45:45;26.70;1.00
1626;DHT22;806;48.770;9.156;2022-07-29T10:48:12;26.50;1.00
1626;DHT22;806;48.770;9.156;2022-07-29T10:50:53;26.40;1.00
1626;DHT22;806;48.770;9.156;2022-07-29T10:53:24;26.30;1.00
1626;DHT22;806;48.770;9.156;2022-07-29T10:56:23;26.20;1.00
1626;DHT22;806;48.770;9.156;2022-07-29T10:59:23;25.80;1.00
1626;DHT22;806;48.770;9.156;2022-07-29T11:01:52;25.50;1.00
1626;DHT22;806;48.770;9.156;2022-07-29T11:07:22;25.10;99.90
1626;DHT22;806;48.770;9.156;2022-07-29T11:12:57;24.00;1.00
1626;DHT22;806;48.770;9.156;2022-07-29T11:15:24;23.50;1.00
1626;DHT22;806;48.770;9.156;2022-07-29T11:18:08;23.00;17.30
1626;DHT22;806;48.770;9.156;2022-07-29T11:20:37;22.30;50.80
1626;DHT22;806;48.770;9.156;2022-07-29T11:23:23;21.80;99.90
1626;DHT22;806;48.770;9.156;2022-07-29T11:26:13;21.50;99.90
1626;DHT22;806;48.770;9.156;2022-07-29T11:28:51;21.30;99.90
1626;DHT22;806;48.770;9.156;2022-07-29T11:31:31;21.30;99.90
1626;DHT22;806;48.770;9.156;2022-07-29T11:34:19;21.20;99.90
1626;DHT22;806;48.770;9.156;2022-07-29T11:37:15;21.20;99.90
1626;DHT22;806;48.770;9.156;2022-07-29T11:39:44;21.50;99.90
1626;DHT22;806;48.770;9.156;2022-07-29T11:42:45;21.90;99.90
1626;DHT22;806;48.770;9.156;2022-07-29T11:45:21;21.90;99.90
1626;DHT22;806;48.770;9.156;2022-07-29T11:47:51;21.90;99.90
1626;DHT22;806;48.770;9.156;2022-07-29T11:50:31;21.90;99.90
1626;DHT22;806;48.770;9.156;2022-07-29T11:53:02;22.00;99.90
1626;DHT22;806;48.770;9.156;2022-07-29T11:55:30;22.00;99.90
1626;DHT22;806;48.770;9.156;2022-07-29T11:58:01;22.10;99.90
1626;DHT22;806;48.770;9.156;2022-07-29T12:00:33;22.30;99.90
1626;DHT22;806;48.770;9.156;2022-07-29T12:03:02;22.40;99.90
1626;DHT22;806;48.770;9.156;2022-07-29T12:05:46;22.40;99.90
1626;DHT22;806;48.770;9.156;2022-07-29T12:08:15;22.30;99.90
1626;DHT22;806;48.770;9.156;2022-07-29T12:10:46;22.20;99.90
1626;DHT22;806;48.770;9.156;2022-07-29T12:13:13;22.10;99.90
1626;DHT22;806;48.770;9.156;2022-07-29T12:15:42;22.00;99.90
1626;DHT22;806;48.770;9.156;2022-07-29T12:18:19;22.00;99.90
1626;DHT22;806;48.770;9.156;2022-07-29T12:20:48;22.00;99.90
1626;DHT22;806;48.770;9.156;2022-07-29T12:23:15;22.00;99.90
1626;DHT22;806;48.770;9.156;2022-07-29T12:25:43;22.10;99.90
1626;DHT22;806;48.770;9.156;2022-07-29T12:28:14;22.20;94.70
1626;DHT22;806;48.770;9.156;2022-07-29T12:30:47;22.10;73.90
1626;DHT22;806;48.770;9.156;2022-07-29T12:33:20;22.00;99.30
1626;DHT22;806;48.770;9.156;2022-07-29T12:35:50;21.80;95.80
1626;DHT22;806;48.770;9.156;2022-07-29T12:38:21;21.70;99.90
1626;DHT22;806;48.770;9.156;2022-07-29T12:40:48;21.80;91.90
1626;DHT22;806;48.770;9.156;2022-07-29T12:43:17;21.70;68.70
1626;DHT22;806;48.770;9.156;2022-07-29T12:45:47;21.70;90.10
1626;DHT22;806;48.770;9.156;2022-07-29T12:48:16;21.60;95.20
1626;DHT22;806;48.770;9.156;2022-07-29T12:50:56;21.60;99.90
1626;DHT22;806;48.770;9.156;2022-07-29T12:53:24;21.50;99.90
1626;DHT22;806;48.770;9.156;2022-07-29T12:55:53;21.60;98.40
1626;DHT22;806;48.770;9.156;2022-07-29T12:58:28;21.60;72.40
1626;DHT22;806;48.770;9.156;2022-07-29T13:01:02;21.70;91.00
1626;DHT22;806;48.770;9.156;2022-07-29T13:03:29;21.60;98.00
1626;DHT22;806;48.770;9.156;2022-07-29T13:06:27;21.50;99.90
1626;DHT22;806;48.770;9.156;2022-07-29T13:09:03;21.40;99.90
1626;DHT22;806;48.770;9.156;2022-07-29T13:11:31;21.30;99.90
1626;DHT22;806;48.770;9.156;2022-07-29T13:13:58;21.30;99.90
1626;DHT22;806;48.770;9.156;2022-07-29T13:16:27;21.30;99.90
1626;DHT22;806;48.770;9.156;2022-07-29T13:19:08;21.40;99.90
1626;DHT22;806;48.770;9.156;2022-07-29T13:21:36;21.30;99.90
1626;DHT22;806;48.770;9.156;2022-07-29T13:24:03;21.10;99.90
1626;DHT22;806;48.770;9.156;2022-07-29T13:26:31;21.00;99.90
1626;DHT22;806;48.770;9.156;2022-07-29T13:28:58;20.80;99.90
1626;DHT22;806;48.770;9.156;2022-07-29T13:31:28;20.80;99.90
1626;DHT22;806;48.770;9.156;2022-07-29T13:33:55;20.70;99.90
1626;DHT22;806;48.770;9.156;2022-07-29T13:36:22;20.70;99.90
1626;DHT22;806;48.770;9.156;2022-07-29T13:38:49;20.60;99.90
1626;DHT22;806;48.770;9.156;2022-07-29T13:41:16;20.60;99.90
1626;DHT22;806;48.770;9.156;2022-07-29T13:43:44;20.60;99.90
1626;DHT22;806;48.770;9.156;2022-07-29T13:46:11;20.60;99.90
1626;DHT22;806;48.770;9.156;2022-07-29T13:48:39;20.60;99.90
1626;DHT22;806;48.770;9.156;2022-07-29T13:51:06;20.70;99.90
1626;DHT22;806;48.770;9.156;2022-07-29T13:53:34;20.90;99.90
1626;DHT22;806;48.770;9.156;2022-07-29T13:56:00;21.10;99.90
1626;DHT22;806;48.770;9.156;2022-07-29T13:58:27;21.40;99.90
1626;DHT22;806;48.770;9.156;2022-07-29T14:00:55;21.70;99.90
1626;DHT22;806;48.770;9.156;2022-07-29T14:03:22;22.00;99.90
1626;DHT22;806;48.770;9.156;2022-07-29T14:05:51;22.30;99.90
1626;DHT22;806;48.770;9.156;2022-07-29T14:08:18;22.50;99.90
1626;DHT22;806;48.770;9.156;2022-07-29T14:10:45;22.60;99.90
1626;DHT22;806;48.770;9.156;2022-07-29T14:13:12;22.70;99.90
1626;DHT22;806;48.770;9.156;2022-07-29T14:15:39;22.80;97.80
1626;DHT22;806;48.770;9.156;2022-07-29T14:18:05;22.90;61.10
1626;DHT22;806;48.770;9.156;2022-07-29T14:20:32;22.70;99.90
1626;DHT22;806;48.770;9.156;2022-07-29T14:23:01;22.80;99.90
1626;DHT22;806;48.770;9.156;2022-07-29T14:25:28;22.80;95.70
1626;DHT22;806;48.770;9.156;2022-07-29T14:27:55;22.90;99.90
1626;DHT22;806;48.770;9.156;2022-07-29T14:30:22;23.00;62.50
1626;DHT22;806;48.770;9.156;2022-07-29T14:32:49;23.10;48.20
1626;DHT22;806;48.770;9.156;2022-07-29T14:35:16;23.30;47.30
1626;DHT22;806;48.770;9.156;2022-07-29T14:37:43;23.40;32.40
1626;DHT22;806;48.770;9.156;2022-07-29T14:40:11;23.50;42.30
1626;DHT22;806;48.770;9.156;2022-07-29T14:42:38;23.50;26.10
1626;DHT22;806;48.770;9.156;2022-07-29T14:45:07;23.60;33.00
1626;DHT22;806;48.770;9.156;2022-07-29T14:47:35;23.80;33.40
1626;DHT22;806;48.770;9.156;2022-07-29T14:50:02;23.90;1.00
1626;DHT22;806;48.770;9.156;2022-07-29T14:52:33;24.00;1.00
1626;DHT22;806;48.770;9.156;2022-07-29T14:55:03;24.00;1.00
1626;DHT22;806;48.770;9.156;2022-07-29T14:57:35;24.10;1.00
1626;DHT22;806;48.770;9.156;2022-07-29T15:00:07;24.10;5.10
1626;DHT22;806;48.770;9.156;2022-07-29T15:02:37;24.20;21.90
1626;DHT22;806;48.770;9.156;2022-07-29T15:05:17;24.10;10.40
1626;DHT22;806;48.770;9.156;2022-07-29T15:07:45;24.10;38.90
1626;DHT22;806;48.770;9.156;2022-07-29T15:10:12;24.20;40.00
1626;DHT22;806;48.770;9.156;2022-07-29T15:12:41;24.10;60.60
1626;DHT22;806;48.770;9.156;2022-07-29T15:15:09;24.20;43.90
1626;DHT22;806;48.770;9.156;2022-07-29T15:17:37;24.20;66.10
1626;DHT22;806;48.770;9.156;2022-07-29T15:20:08;24.30;63.10
1626;DHT22;806;48.770;9.156;2022-07-29T15:22:37;24.20;71.20
1626;DHT22;806;48.770;9.156;2022-07-29T15:25:09;24.20;77.60
1626;DHT22;806;48.770;9.156;2022-07-29T15:27:37;24.10;74.60
1626;DHT22;806;48.770;9.156;2022-07-29T15:30:10;24.10;91.50
1626;DHT22;806;48.770;9.156;2022-07-29T15:32:37;24.00;66.90
1626;DHT22;806;48.770;9.156;2022-07-29T15:35:13;24.00;58.10
1626;DHT22;806;48.770;9.156;2022-07-29T15:37:40;24.00;20.40
1626;DHT22;806;48.770;9.156;2022-07-29T15:40:17;24.10;19.50
1626;DHT22;806;48.770;9.156;2022-07-29T15:42:49;24.10;9.20
1626;DHT22;806;48.770;9.156;2022-07-29T15:45:22;24.10;21.40
1626;DHT22;806;48.770;9.156;2022-07-29T15:47:49;24.10;16.10
1626;DHT22;806;48.770;9.156;2022-07-29T15:50:17;24.00;46.10
1626;DHT22;806;48.770;9.156;2022-07-29T15:52:44;23.90;33.30
1626;DHT22;806;48.770;9.156;2022-07-29T15:55:12;23.90;52.50
1626;DHT22;806;48.770;9.156;2022-07-29T15:57:40;23.80;54.90
1626;DHT22;806;48.770;9.156;2022-07-29T16:00:12;23.80;80.10
1626;DHT22;806;48.770;9.156;2022-07-29T16:02:40;23.90;69.60
1626;DHT22;806;48.770;9.156;2022-07-29T16:05:08;23.90;82.10
1626;DHT22;806;48.770;9.156;2022-07-29T16:07:35;23.90;99.40
1626;DHT22;806;48.770;9.156;2022-07-29T16:10:02;23.90;99.90
1626;DHT22;806;48.770;9.156;2022-07-29T16:12:29;23.90;98.50
1626;DHT22;806;48.770;9.156;2022-07-29T16:14:56;24.00;90.20
1626;DHT22;806;48.770;9.156;2022-07-29T16:17:23;24.00;92.30
1626;DHT22;806;48.770;9.156;2022-07-29T16:19:52;23.90;71.50
1626;DHT22;806;48.770;9.156;2022-07-29T16:22:20;23.90;60.90
1626;DHT22;806;48.770;9.156;2022-07-29T16:24:47;23.90;56.30
1626;DHT22;806;48.770;9.156;2022-07-29T16:27:14;23.90;45.20
1626;DHT22;806;48.770;9.156;2022-07-29T16:29:42;23.80;49.50
1626;DHT22;806;48.770;9.156;2022-07-29T16:32:11;23.70;55.40
1626;DHT22;806;48.770;9.156;2022-07-29T16:34:38;23.60;51.90
1626;DHT22;806;48.770;9.156;2022-07-29T16:37:06;23.60;66.40
1626;DHT22;806;48.770;9.156;2022-07-29T16:39:33;23.60;56.10
1626;DHT22;806;48.770;9.156;2022-07-29T16:42:00;23.60;61.60
1626;DHT22;806;48.770;9.156;2022-07-29T16:44:28;23.60;70.20